Toronto, Canada
Current Conditions -  °F | °C
As of 9:00 PM on Wednesday 17 Dec 2014 (Local Time) from CYYZ Reporting Station
Light Snow Light Snow  
Wind Chill: -6°   Ceiling: 1600
Heat Index:   Visibility: 5mi
Dew Point: -2°   Wind: 16mph
Humidity: 87%   Direction: 260°W
Pressure: 29.96"   Gusts: 22mph
Location:  43.65°N, 79.39°W
Report Text: CYYZ 180200Z 26014G19KT 5SM -SN BKN016 OVC030 M00/M02 A2996 RMK SC6SC2 SLP151
Loading
Personal Weather Stations






























Interactive Weather Map New forecast layout! Learn more

10-Day Weather Forecast

Advertisements
Track Severe Weather on mobile